Solo, Missouri
Current Conditions -  °F | °C
As of 6:53 PM on Thursday 25 Dec 2014 (Local Time) from KUNO Reporting Station
Clear Clear  
Wind Chill: 39°   Ceiling: Unl
Heat Index: 45°   Visibility: 10mi
Dew Point: 31°   Wind: 12mph
Humidity: 58%   Direction: 160°SSE
Pressure: 30"   Gusts: NA
Location:  37.24°N, 91.95°W
Report Text: KUNO 260053Z AUTO 16010KT 10SM CLR 07/M01 A3000 RMK AO2 SLP163 T00721006
Loading
Personal Weather Stations






























Interactive Weather Map New forecast layout! Learn more

10-Day Weather Forecast

Advertisements
Track Severe Weather on mobile